createdAt,value
2018-01-20T00:01:37.057Z,0.10
2018-01-20T00:04:03.271Z,0.20
2018-01-20T00:06:29.604Z,0.10
2018-01-20T00:08:55.888Z,0.20
2018-01-20T00:11:34.644Z,0.10
2018-01-20T00:14:01.572Z,0.20
2018-01-20T00:16:27.838Z,0.10
2018-01-20T00:18:54.019Z,0.10
2018-01-20T00:21:20.994Z,0.10
2018-01-20T00:23:47.919Z,0.10
2018-01-20T00:29:15.635Z,0.10
2018-01-20T00:31:41.856Z,0.10
2018-01-20T00:34:08.819Z,0.10
2018-01-20T00:36:35.055Z,0.10
2018-01-20T00:39:01.235Z,0.10
2018-01-20T00:41:28.154Z,0.10
2018-01-20T00:43:54.375Z,0.10
2018-01-20T00:46:20.555Z,0.00
2018-01-20T00:48:47.519Z,0.10
2018-01-20T00:51:13.695Z,0.00
2018-01-20T00:53:39.927Z,0.10
2018-01-20T00:56:06.114Z,0.10
2018-01-20T00:58:32.375Z,0.10
2018-01-20T01:00:58.551Z,0.10
2018-01-20T01:03:25.468Z,0.00
2018-01-20T01:05:51.744Z,0.00
2018-01-20T01:08:18.680Z,-0.10
2018-01-20T01:10:44.855Z,-0.10
2018-01-20T01:13:11.131Z,-0.20
2018-01-20T01:15:38.095Z,-0.20
2018-01-20T01:18:04.330Z,-0.20
2018-01-20T01:20:30.511Z,-0.20
2018-01-20T01:22:57.435Z,-0.30
2018-01-20T01:25:23.661Z,-0.30
2018-01-20T01:27:49.962Z,-0.30
2018-01-20T01:30:16.188Z,-0.30
2018-01-20T01:32:42.362Z,-0.30
2018-01-20T01:35:08.607Z,-0.30
2018-01-20T01:37:35.531Z,-0.30
2018-01-20T01:40:01.762Z,-0.30
2018-01-20T01:42:28.260Z,-0.30
2018-01-20T01:44:54.612Z,-0.30
2018-01-20T01:47:20.798Z,-0.30
2018-01-20T01:49:47.014Z,-0.30
2018-01-20T01:52:14.029Z,-0.30
2018-01-20T01:54:40.187Z,-0.40
2018-01-20T01:57:07.155Z,-0.30
2018-01-20T01:59:33.754Z,-0.30
2018-01-20T02:01:59.993Z,-0.30
2018-01-20T02:04:26.906Z,-0.30
2018-01-20T02:06:53.135Z,-0.30
2018-01-20T02:09:20.085Z,-0.30
2018-01-20T02:11:47.643Z,-0.30
2018-01-20T02:14:14.259Z,-0.30
2018-01-20T02:16:41.021Z,-0.30
2018-01-20T02:19:07.371Z,-0.30
2018-01-20T02:21:33.563Z,-0.30
2018-01-20T02:23:59.803Z,-0.30
2018-01-20T02:26:26.323Z,-0.30
2018-01-20T02:28:52.549Z,-0.30
2018-01-20T02:31:25.899Z,-0.30
2018-01-20T02:33:52.831Z,-0.30
2018-01-20T02:36:19.108Z,-0.30
2018-01-20T02:38:45.286Z,-0.20
2018-01-20T02:41:11.512Z,-0.30
2018-01-20T02:43:37.695Z,-0.20
2018-01-20T02:46:03.920Z,-0.20
2018-01-20T02:48:30.099Z,-0.20
2018-01-20T02:50:56.319Z,-0.20
2018-01-20T02:53:22.495Z,-0.20
2018-01-20T02:55:49.470Z,-0.20
2018-01-20T02:58:15.666Z,-0.20
2018-01-20T03:00:42.586Z,-0.10
2018-01-20T03:03:08.811Z,-0.10
2018-01-20T03:05:35.035Z,-0.10
2018-01-20T03:08:01.256Z,-0.10
2018-01-20T03:10:27.435Z,-0.10
2018-01-20T03:12:54.522Z,-0.10
2018-01-20T03:15:20.828Z,-0.10
2018-01-20T03:17:47.035Z,-0.10
2018-01-20T03:20:13.990Z,-0.10
2018-01-20T03:22:40.175Z,-0.10
2018-01-20T03:25:06.383Z,-0.10
2018-01-20T03:27:32.564Z,-0.10
2018-01-20T03:29:59.511Z,-0.10
2018-01-20T03:32:26.435Z,0.00
2018-01-20T03:34:52.703Z,0.00
2018-01-20T03:37:18.872Z,0.00
2018-01-20T03:39:45.051Z,0.00
2018-01-20T03:42:11.999Z,0.00
2018-01-20T03:44:38.235Z,0.00
2018-01-20T03:47:04.416Z,0.00
2018-01-20T03:49:30.914Z,0.00
2018-01-20T03:51:57.118Z,0.00
2018-01-20T03:54:24.035Z,-0.10
2018-01-20T03:56:51.087Z,-0.10
2018-01-20T03:59:17.268Z,-0.10
2018-01-20T04:01:43.447Z,-0.20
2018-01-20T04:04:09.659Z,-0.20
2018-01-20T04:06:35.834Z,-0.20
2018-01-20T04:09:02.062Z,-0.20
2018-01-20T04:11:28.727Z,-0.30
2018-01-20T04:13:54.935Z,-0.30
2018-01-20T04:16:21.107Z,-0.30
2018-01-20T04:18:47.319Z,-0.30
2018-01-20T04:21:13.494Z,-0.30
2018-01-20T04:23:40.443Z,-0.30
2018-01-20T04:26:07.367Z,-0.30
2018-01-20T04:28:33.598Z,-0.30
2018-01-20T04:30:59.783Z,-0.30
2018-01-20T04:33:25.994Z,-0.30
2018-01-20T04:35:52.199Z,-0.30
2018-01-20T04:38:19.115Z,-0.30
2018-01-20T04:40:45.323Z,-0.30
2018-01-20T04:43:11.519Z,-0.30
2018-01-20T04:45:37.736Z,-0.30
2018-01-20T04:48:04.661Z,-0.30
2018-01-20T04:50:30.871Z,-0.30
2018-01-20T04:52:57.059Z,-0.40
2018-01-20T04:55:23.297Z,-0.30
2018-01-20T04:57:49.491Z,-0.30
2018-01-20T05:00:16.459Z,-0.30
2018-01-20T05:02:42.635Z,-0.30
2018-01-20T05:05:08.883Z,-0.40
2018-01-20T05:07:35.095Z,-0.40
2018-01-20T05:10:01.272Z,-0.50
2018-01-20T05:12:27.493Z,-0.50
2018-01-20T05:14:54.412Z,-0.50
2018-01-20T05:17:20.623Z,-0.50
2018-01-20T05:19:46.803Z,-0.50
2018-01-20T05:22:13.332Z,-0.50
2018-01-20T05:24:39.515Z,-0.50
2018-01-20T05:27:05.699Z,-0.60
2018-01-20T05:29:31.907Z,-0.60
2018-01-20T05:31:58.858Z,-0.80
2018-01-20T05:34:25.071Z,-0.70
2018-01-20T05:36:51.992Z,-0.80
2018-01-20T05:39:18.195Z,-0.80
2018-01-20T05:41:44.376Z,-0.80
2018-01-20T05:44:11.341Z,-0.80
2018-01-20T05:46:37.595Z,-0.80
2018-01-20T05:49:03.803Z,-0.90
2018-01-20T05:51:29.979Z,-0.90
2018-01-20T05:53:56.187Z,-1.00
2018-01-20T05:56:22.367Z,-1.00
2018-01-20T05:58:49.286Z,-0.80
2018-01-20T06:01:15.501Z,-0.80
2018-01-20T06:03:42.022Z,-0.80
2018-01-20T06:06:08.239Z,-0.80
2018-01-20T06:08:34.419Z,-0.80
2018-01-20T06:11:00.626Z,-0.70
2018-01-20T06:13:26.943Z,-0.70
2018-01-20T06:15:53.155Z,-0.70
2018-01-20T06:18:19.339Z,-0.80
2018-01-20T06:20:45.739Z,-0.70
2018-01-20T06:23:11.919Z,-0.70
2018-01-20T06:25:38.839Z,-0.70
2018-01-20T06:28:05.055Z,-0.70
2018-01-20T06:30:31.271Z,-0.70
2018-01-20T06:32:57.475Z,-0.70
2018-01-20T06:35:23.660Z,-0.70
2018-01-20T06:37:49.867Z,-0.70
2018-01-20T06:40:16.047Z,-0.60
2018-01-20T06:42:42.255Z,-0.60
2018-01-20T06:45:09.175Z,-0.50
2018-01-20T06:47:35.388Z,-0.60
2018-01-20T06:50:01.600Z,-0.50
2018-01-20T06:52:27.842Z,-0.50
2018-01-20T06:54:54.021Z,-0.50
2018-01-20T06:57:20.235Z,-0.50
2018-01-20T06:59:46.442Z,-0.50
2018-01-20T07:02:12.619Z,-0.50
2018-01-20T07:04:38.847Z,-0.50
2018-01-20T07:07:05.031Z,-0.50
2018-01-20T07:09:31.248Z,-0.60
2018-01-20T07:11:57.427Z,-0.50
2018-01-20T07:14:24.763Z,-0.50
2018-01-20T07:16:50.976Z,-0.50
2018-01-20T07:19:17.187Z,-0.50
2018-01-20T07:21:43.398Z,-0.40
2018-01-20T07:24:09.627Z,-0.40
2018-01-20T07:26:35.806Z,-0.40
2018-01-20T07:29:01.983Z,-0.30
2018-01-20T07:31:28.225Z,-0.30
2018-01-20T07:33:54.440Z,-0.30
2018-01-20T07:36:20.655Z,-0.20
2018-01-20T07:38:46.832Z,-0.20
2018-01-20T07:41:13.826Z,-0.20
2018-01-20T07:43:40.008Z,-0.20
2018-01-20T07:46:07.675Z,-0.10
2018-01-20T07:48:33.886Z,-0.10
2018-01-20T07:51:00.107Z,0.00
2018-01-20T07:53:26.287Z,0.00
2018-01-20T07:55:53.208Z,0.00
2018-01-20T07:58:19.419Z,0.00
2018-01-20T08:00:45.682Z,0.00
2018-01-20T08:03:12.614Z,0.10
2018-01-20T08:05:38.799Z,0.00
2018-01-20T08:08:05.007Z,0.10
2018-01-20T08:10:31.183Z,0.10
2018-01-20T08:12:57.399Z,0.10
2018-01-20T08:15:23.579Z,0.20
2018-01-20T08:17:50.535Z,0.30
2018-01-20T08:20:17.475Z,0.30
2018-01-20T08:22:44.451Z,0.20
2018-01-20T08:25:10.631Z,0.20
2018-01-20T08:27:36.807Z,0.20
2018-01-20T08:30:03.051Z,0.40
2018-01-20T08:32:29.231Z,0.40
2018-01-20T08:34:56.183Z,0.40
2018-01-20T08:37:22.442Z,0.40
2018-01-20T08:39:48.646Z,0.40
2018-01-20T08:42:14.823Z,0.50
2018-01-20T08:44:41.035Z,0.60
2018-01-20T08:47:07.243Z,0.70
2018-01-20T08:49:33.447Z,0.80
2018-01-20T08:52:00.434Z,0.90
2018-01-20T08:54:26.621Z,0.90
2018-01-20T08:56:53.575Z,0.90
2018-01-20T08:59:19.815Z,0.90
2018-01-20T09:01:46.023Z,1.00
2018-01-20T09:04:12.947Z,1.10
2018-01-20T09:06:39.187Z,1.10
2018-01-20T09:09:05.367Z,1.20
2018-01-20T09:11:31.548Z,1.00
2018-01-20T09:13:58.499Z,1.40
2018-01-20T09:16:25.419Z,1.50
2018-01-20T09:18:51.627Z,1.50
2018-01-20T09:21:17.808Z,1.60
2018-01-20T09:23:44.296Z,1.70
2018-01-20T09:26:10.507Z,1.90
2018-01-20T09:28:36.682Z,2.20
2018-01-20T09:31:02.923Z,2.70
2018-01-20T09:33:29.939Z,7.20
2018-01-20T09:35:56.117Z,7.10
2018-01-20T09:38:22.339Z,7.30
2018-01-20T09:40:49.259Z,5.40
2018-01-20T09:43:15.436Z,5.40
2018-01-20T09:45:41.646Z,5.80
2018-01-20T09:48:08.020Z,7.20
2018-01-20T09:50:34.204Z,7.60
2018-01-20T09:53:01.123Z,10.30
2018-01-20T09:55:27.334Z,10.20
2018-01-20T09:57:53.575Z,12.00
2018-01-20T10:00:19.784Z,13.40
2018-01-20T10:02:45.982Z,13.80
2018-01-20T10:05:12.186Z,12.80
2018-01-20T10:07:39.102Z,11.60
2018-01-20T10:10:05.335Z,11.50
2018-01-20T10:12:33.003Z,8.60
2018-01-20T10:14:59.178Z,8.60
2018-01-20T10:17:25.379Z,8.40
2018-01-20T10:19:52.299Z,7.20
2018-01-20T10:22:18.509Z,7.10
2018-01-20T10:24:44.687Z,6.20
2018-01-20T10:27:11.634Z,5.60
2018-01-20T10:29:38.551Z,4.90
2018-01-20T10:32:04.791Z,4.90
2018-01-20T10:34:31.723Z,4.50
2018-01-20T10:36:58.674Z,4.50
2018-01-20T10:39:24.859Z,4.50
2018-01-20T10:41:51.071Z,4.20
2018-01-20T10:44:17.566Z,3.70
2018-01-20T10:46:43.800Z,3.20
2018-01-20T10:49:10.723Z,3.50
2018-01-20T10:51:36.898Z,3.40
2018-01-20T10:54:03.116Z,4.10
2018-01-20T10:56:30.040Z,4.20
2018-01-20T10:58:56.247Z,4.20
2018-01-20T11:01:22.422Z,4.40
2018-01-20T11:03:48.639Z,5.50
2018-01-20T11:06:15.575Z,7.10
2018-01-20T11:08:41.783Z,7.10
2018-01-20T11:11:08.442Z,7.00
2018-01-20T11:13:34.651Z,6.50
2018-01-20T11:16:00.831Z,6.00
2018-01-20T11:18:27.199Z,5.70
2018-01-20T11:20:53.715Z,5.30
2018-01-20T11:23:19.891Z,5.00
2018-01-20T11:25:46.107Z,4.90
2018-01-20T11:28:12.291Z,4.70
2018-01-20T11:30:38.532Z,4.70
2018-01-20T11:33:04.711Z,4.60
2018-01-20T11:35:30.966Z,4.60
2018-01-20T11:37:57.895Z,5.10
2018-01-20T11:40:24.838Z,5.40
2018-01-20T11:42:51.023Z,5.40
2018-01-20T11:45:17.227Z,6.10
2018-01-20T11:47:43.503Z,6.60
2018-01-20T11:50:09.722Z,6.30
2018-01-20T11:52:35.935Z,6.00
2018-01-20T11:55:02.152Z,6.20
2018-01-20T11:57:28.367Z,5.70
2018-01-20T11:59:54.737Z,5.00
2018-01-20T12:02:20.931Z,4.50
2018-01-20T12:04:47.171Z,4.50
2018-01-20T12:07:13.403Z,4.60
2018-01-20T12:09:39.587Z,4.80
2018-01-20T12:12:06.535Z,6.10
2018-01-20T12:14:33.455Z,7.20
2018-01-20T12:16:59.662Z,7.20
2018-01-20T12:19:25.863Z,9.10
2018-01-20T12:21:52.090Z,11.90
2018-01-20T12:24:18.292Z,12.10
2018-01-20T12:26:45.286Z,7.80
2018-01-20T12:29:11.482Z,7.80
2018-01-20T12:31:38.468Z,5.80
2018-01-20T12:34:04.702Z,5.80
2018-01-20T12:36:31.149Z,4.90
2018-01-20T12:38:57.714Z,4.10
2018-01-20T12:41:23.919Z,3.40
2018-01-20T12:43:50.151Z,2.80
2018-01-20T12:46:16.347Z,2.50
2018-01-20T12:48:42.599Z,2.30
2018-01-20T12:51:08.815Z,2.30
2018-01-20T12:53:34.999Z,2.20
2018-01-20T12:56:01.962Z,2.30
2018-01-20T12:58:28.143Z,2.20
2018-01-20T13:00:54.355Z,2.20
2018-01-20T13:03:20.535Z,2.20
2018-01-20T13:05:47.487Z,2.20
2018-01-20T13:08:13.683Z,2.20
2018-01-20T13:10:40.227Z,2.30
2018-01-20T13:13:07.155Z,2.50
2018-01-20T13:15:33.367Z,2.40
2018-01-20T13:17:59.562Z,2.40
2018-01-20T13:20:25.746Z,2.30
2018-01-20T13:22:51.956Z,2.30
2018-01-20T13:25:18.134Z,2.20
2018-01-20T13:27:45.083Z,2.30
2018-01-20T13:30:12.017Z,2.40
2018-01-20T13:32:39.359Z,2.50
2018-01-20T13:35:05.539Z,2.50
2018-01-20T13:37:31.742Z,2.70
2018-01-20T13:39:58.668Z,2.70
2018-01-20T13:42:24.875Z,2.60
2018-01-20T13:44:51.051Z,2.70
2018-01-20T13:47:17.519Z,2.70
2018-01-20T13:49:43.695Z,2.70
2018-01-20T13:52:10.615Z,2.80
2018-01-20T13:54:36.831Z,2.80
2018-01-20T13:57:03.011Z,2.90
2018-01-20T13:59:29.219Z,3.10
2018-01-20T14:01:56.139Z,3.20
2018-01-20T14:04:22.351Z,3.20
2018-01-20T14:06:48.532Z,3.20
2018-01-20T14:09:15.487Z,3.20
2018-01-20T14:11:42.407Z,3.20
2018-01-20T14:14:09.363Z,3.20
2018-01-20T14:16:36.287Z,3.20
2018-01-20T14:19:02.779Z,3.10
2018-01-20T14:21:28.971Z,3.10
2018-01-20T14:23:55.918Z,3.10
2018-01-20T14:26:22.835Z,3.10
2018-01-20T14:28:49.046Z,3.10
2018-01-20T14:31:15.219Z,3.10
2018-01-20T14:33:42.246Z,2.90
2018-01-20T14:36:08.430Z,2.90
2018-01-20T14:38:34.619Z,2.90
2018-01-20T14:41:01.603Z,2.80
2018-01-20T14:43:27.780Z,2.80
2018-01-20T14:45:53.991Z,2.80
2018-01-20T14:48:20.181Z,2.80
2018-01-20T14:50:46.391Z,2.80
2018-01-20T14:53:12.600Z,2.80
2018-01-20T14:55:38.827Z,2.80
2018-01-20T14:58:05.011Z,2.70
2018-01-20T15:00:31.264Z,2.70
2018-01-20T15:02:57.459Z,2.60
2018-01-20T15:05:23.672Z,2.60
2018-01-20T15:07:49.855Z,2.50
2018-01-20T15:10:16.099Z,2.30
2018-01-20T15:12:42.288Z,2.20
2018-01-20T15:15:08.512Z,2.20
2018-01-20T15:17:34.711Z,2.10
2018-01-20T15:20:01.638Z,2.00
2018-01-20T15:22:27.847Z,2.00
2018-01-20T15:24:54.054Z,2.00
2018-01-20T15:27:20.576Z,2.00
2018-01-20T15:29:46.760Z,2.00
2018-01-20T15:32:13.740Z,1.80
2018-01-20T15:34:39.968Z,1.80
2018-01-20T15:37:06.175Z,1.60
2018-01-20T15:39:33.088Z,1.50
2018-01-20T15:41:59.299Z,1.50
2018-01-20T15:44:25.513Z,1.50
2018-01-20T15:46:51.719Z,1.50
2018-01-20T15:49:17.929Z,1.40
2018-01-20T15:51:44.986Z,1.10
2018-01-20T15:54:11.918Z,1.00
2018-01-20T15:56:38.213Z,0.90
2018-01-20T15:59:04.379Z,0.90
2018-01-20T16:01:31.332Z,0.80
2018-01-20T16:03:58.255Z,0.70
2018-01-20T16:06:24.470Z,0.70
2018-01-20T16:08:50.655Z,0.60
2018-01-20T16:11:16.919Z,0.50
2018-01-20T16:13:43.102Z,0.50
2018-01-20T16:16:10.051Z,0.40
2018-01-20T16:18:37.046Z,0.40
2018-01-20T16:21:03.274Z,0.40
2018-01-20T16:23:29.446Z,0.40
2018-01-20T16:25:56.440Z,0.40
2018-01-20T16:28:22.626Z,0.40
2018-01-20T16:30:49.547Z,0.50
2018-01-20T16:33:16.219Z,0.50
2018-01-20T16:35:42.401Z,0.60
2018-01-20T16:38:08.613Z,0.60
2018-01-20T16:40:34.803Z,0.70
2018-01-20T16:43:01.014Z,0.70
2018-01-20T16:45:27.939Z,0.80
2018-01-20T16:47:54.149Z,0.80
2018-01-20T16:50:20.328Z,0.80
2018-01-20T16:52:47.317Z,0.70
2018-01-20T16:55:13.507Z,0.70
2018-01-20T16:57:39.773Z,0.70
2018-01-20T17:00:05.998Z,0.70
2018-01-20T17:02:32.258Z,0.60
2018-01-20T17:04:59.176Z,0.50
2018-01-20T17:07:25.433Z,0.50
2018-01-20T17:09:51.638Z,0.50
2018-01-20T17:12:17.862Z,0.50
2018-01-20T17:14:44.135Z,0.50
2018-01-20T17:17:11.056Z,0.50
2018-01-20T17:19:37.267Z,0.50
2018-01-20T17:22:03.484Z,0.60
2018-01-20T17:24:29.831Z,0.50
2018-01-20T17:26:56.053Z,0.60
2018-01-20T17:29:22.262Z,0.50
2018-01-20T17:31:48.512Z,0.50
2018-01-20T17:34:14.719Z,0.60
2018-01-20T17:36:40.941Z,0.50
2018-01-20T17:39:07.124Z,0.50
2018-01-20T17:41:33.328Z,0.50
2018-01-20T17:43:59.508Z,0.50
2018-01-20T17:46:26.800Z,0.60
2018-01-20T17:48:52.987Z,0.50
2018-01-20T17:51:19.959Z,0.60
2018-01-20T17:53:46.206Z,0.60
2018-01-20T17:56:12.444Z,0.60
2018-01-20T17:58:38.623Z,0.60
2018-01-20T18:01:12.751Z,0.60
2018-01-20T18:03:39.671Z,0.60
2018-01-20T18:06:06.155Z,0.60
2018-01-20T18:08:32.405Z,0.60
2018-01-20T18:10:58.580Z,0.70
2018-01-20T18:13:25.578Z,0.80
2018-01-20T18:15:51.751Z,0.70
2018-01-20T18:18:18.763Z,0.80
2018-01-20T18:20:44.951Z,0.80
2018-01-20T18:23:11.906Z,0.80
2018-01-20T18:25:38.124Z,0.80
2018-01-20T18:28:04.335Z,0.80
2018-01-20T18:30:31.306Z,0.80
2018-01-20T18:32:57.547Z,0.80
2018-01-20T18:35:23.782Z,0.80
2018-01-20T18:37:49.990Z,0.80
2018-01-20T18:40:16.336Z,0.80
2018-01-20T18:42:42.538Z,0.90
2018-01-20T18:45:08.747Z,0.90
2018-01-20T18:47:35.698Z,0.80
2018-01-20T18:50:02.631Z,0.80
2018-01-20T18:52:28.840Z,0.80
2018-01-20T18:54:55.028Z,0.70
2018-01-20T18:57:21.277Z,0.60
2018-01-20T18:59:47.533Z,0.60
2018-01-20T19:02:14.558Z,0.60
2018-01-20T19:04:40.735Z,0.60
2018-01-20T19:07:07.698Z,0.70
2018-01-20T19:09:33.929Z,0.60
2018-01-20T19:12:00.298Z,0.70
2018-01-20T19:14:26.491Z,0.60
2018-01-20T19:16:52.672Z,0.70
2018-01-20T19:19:18.891Z,0.60
2018-01-20T19:21:45.134Z,0.60
2018-01-20T19:24:11.672Z,0.40
2018-01-20T19:26:38.712Z,0.30
2018-01-20T19:29:04.986Z,0.20
2018-01-20T19:31:32.054Z,0.30
2018-01-20T19:33:58.320Z,0.30
2018-01-20T19:36:24.498Z,0.20
2018-01-20T19:38:50.753Z,0.20
2018-01-20T19:41:16.934Z,0.30
2018-01-20T19:43:43.883Z,0.30
2018-01-20T19:46:10.811Z,0.40
2018-01-20T19:48:37.139Z,0.30
2018-01-20T19:51:04.158Z,0.40
2018-01-20T19:53:30.821Z,0.40
2018-01-20T19:55:57.814Z,0.50
2018-01-20T19:58:24.099Z,0.40
2018-01-20T20:00:51.214Z,0.50
2018-01-20T20:03:17.482Z,0.50
2018-01-20T20:05:43.705Z,0.50
2018-01-20T20:08:09.946Z,0.50
2018-01-20T20:10:36.246Z,0.50
2018-01-20T20:13:02.423Z,0.50
2018-01-20T20:15:29.426Z,0.40
2018-01-20T20:17:55.598Z,0.40
2018-01-20T20:20:22.587Z,0.30
2018-01-20T20:22:48.818Z,0.30
2018-01-20T20:25:15.103Z,0.30
2018-01-20T20:27:42.150Z,0.30
2018-01-20T20:30:09.128Z,0.30
2018-01-20T20:32:35.382Z,0.20
2018-01-20T20:35:01.664Z,0.30
2018-01-20T20:37:28.686Z,0.20
2018-01-20T20:39:55.823Z,0.20
2018-01-20T20:42:22.111Z,0.20
2018-01-20T20:44:48.340Z,0.10
2018-01-20T20:47:14.595Z,0.10
2018-01-20T20:49:40.826Z,0.10
2018-01-20T20:52:07.162Z,0.20
2018-01-20T20:54:33.479Z,0.20
2018-01-20T20:57:00.262Z,0.30
2018-01-20T20:59:27.923Z,0.20
2018-01-20T21:01:54.163Z,0.20
2018-01-20T21:04:20.438Z,0.20
2018-01-20T21:06:46.776Z,0.20
2018-01-20T21:09:13.010Z,0.20
2018-01-20T21:11:39.407Z,0.20
2018-01-20T21:14:06.415Z,0.10
2018-01-20T21:16:32.719Z,0.10
2018-01-20T21:18:58.927Z,0.10
2018-01-20T21:21:25.155Z,0.00
2018-01-20T21:23:51.419Z,0.00
2018-01-20T21:26:17.655Z,0.10
2018-01-20T21:28:43.915Z,0.00
2018-01-20T21:31:10.147Z,-0.10
2018-01-20T21:33:37.314Z,-0.10
2018-01-20T21:36:04.274Z,0.00
2018-01-20T21:38:30.447Z,-0.10
2018-01-20T21:40:56.655Z,0.00
2018-01-20T21:43:22.891Z,0.00
2018-01-20T21:45:49.151Z,0.00
2018-01-20T21:48:15.331Z,-0.10
2018-01-20T21:50:41.694Z,-0.10
2018-01-20T21:53:07.867Z,-0.10
2018-01-20T21:55:34.870Z,-0.10
2018-01-20T21:58:01.119Z,-0.10
2018-01-20T22:00:27.330Z,-0.10
2018-01-20T22:02:53.519Z,0.00
2018-01-20T22:05:19.858Z,-0.10
2018-01-20T22:07:46.081Z,-0.10
2018-01-20T22:10:12.450Z,-0.10
2018-01-20T22:12:38.705Z,-0.10
2018-01-20T22:15:05.835Z,0.00
2018-01-20T22:17:32.066Z,0.00
2018-01-20T22:19:58.289Z,0.00
2018-01-20T22:22:24.495Z,0.10
2018-01-20T22:24:50.746Z,0.10
2018-01-20T22:27:16.984Z,0.20
2018-01-20T22:29:43.666Z,0.20
2018-01-20T22:32:09.922Z,0.20
2018-01-20T22:34:36.099Z,0.20
2018-01-20T22:37:03.101Z,0.20
2018-01-20T22:39:29.359Z,0.10
2018-01-20T22:41:55.614Z,0.20
2018-01-20T22:44:22.534Z,0.20
2018-01-20T22:46:48.855Z,0.20
2018-01-20T22:49:15.048Z,0.10
2018-01-20T22:51:41.269Z,0.10
2018-01-20T22:54:07.475Z,0.10
2018-01-20T22:56:41.415Z,0.10
2018-01-20T22:59:07.623Z,0.10
2018-01-20T23:01:34.595Z,-0.10
2018-01-20T23:04:00.802Z,-0.10
2018-01-20T23:06:26.983Z,-0.10
2018-01-20T23:08:53.191Z,-0.30
2018-01-20T23:11:19.371Z,-0.40
2018-01-20T23:13:46.326Z,-0.50
2018-01-20T23:16:13.255Z,-0.40
2018-01-20T23:18:39.467Z,-0.50
2018-01-20T23:21:05.730Z,-0.40
2018-01-20T23:23:32.931Z,-0.30
2018-01-20T23:25:59.099Z,-0.30
2018-01-20T23:28:26.014Z,-0.20
2018-01-20T23:30:52.236Z,-0.30
2018-01-20T23:33:18.484Z,-0.20
2018-01-20T23:35:44.694Z,-0.20
2018-01-20T23:38:10.866Z,-0.20
2018-01-20T23:40:37.877Z,-0.30
2018-01-20T23:43:04.059Z,-0.30
2018-01-20T23:45:30.269Z,-0.30
2018-01-20T23:47:57.196Z,-0.40
2018-01-20T23:50:23.400Z,-0.50
2018-01-20T23:52:49.621Z,-0.50
2018-01-20T23:55:15.856Z,-0.40
2018-01-20T23:57:42.072Z,-0.40
